createdAt,value
2019-01-18T00:01:08.158Z,96916.36
2019-01-18T00:03:37.923Z,96924.69
2019-01-18T00:06:07.773Z,96929.37
2019-01-18T00:08:37.999Z,96930.22
2019-01-18T00:11:08.269Z,96926.97
2019-01-18T00:13:38.480Z,96929.66
2019-01-18T00:16:08.414Z,96935.76
2019-01-18T00:18:39.090Z,96941.42
2019-01-18T00:21:09.102Z,96942.30
2019-01-18T00:23:38.888Z,96942.30
2019-01-18T00:26:08.645Z,96948.16
2019-01-18T00:28:38.483Z,96950.25
2019-01-18T00:31:08.353Z,96945.57
2019-01-18T00:33:38.137Z,96955.27
2019-01-18T00:36:08.117Z,96962.67
2019-01-18T00:38:37.869Z,96960.10
2019-01-18T00:41:07.670Z,96958.81
2019-01-18T00:43:37.410Z,96958.36
2019-01-18T00:46:08.201Z,96957.51
2019-01-18T00:48:37.935Z,96973.09
2019-01-18T00:51:07.740Z,96971.45
2019-01-18T00:53:37.458Z,96974.03
2019-01-18T00:56:07.301Z,96974.98
2019-01-18T00:58:37.061Z,96973.70
2019-01-18T01:01:06.904Z,96972.82
2019-01-18T01:03:36.800Z,96972.49
2019-01-18T01:06:06.570Z,96972.55
2019-01-18T01:08:36.333Z,96973.77
2019-01-18T01:11:06.298Z,96971.25
2019-01-18T01:13:36.124Z,96971.28
2019-01-18T01:16:06.963Z,96978.61
2019-01-18T01:18:36.676Z,96974.73
2019-01-18T01:21:06.635Z,96973.06
2019-01-18T01:23:36.444Z,96977.89
2019-01-18T01:26:06.245Z,96983.88
2019-01-18T01:28:36.084Z,96984.34
2019-01-18T01:31:05.905Z,96989.16
2019-01-18T01:33:35.671Z,96996.08
2019-01-18T01:36:05.487Z,96982.27
2019-01-18T01:38:35.358Z,96987.84
2019-01-18T01:41:05.140Z,96989.50
2019-01-18T01:43:34.957Z,96981.62
2019-01-18T01:46:04.823Z,96986.86
2019-01-18T01:48:35.457Z,96993.75
2019-01-18T01:51:05.687Z,96994.53
2019-01-18T01:53:36.078Z,96989.84
2019-01-18T01:56:05.989Z,96987.33
2019-01-18T01:58:35.758Z,96986.03
2019-01-18T02:01:05.564Z,96985.59
2019-01-18T02:03:35.351Z,96981.27
2019-01-18T02:06:05.119Z,96983.83
2019-01-18T02:08:34.877Z,96976.93
2019-01-18T02:11:04.774Z,96986.49
2019-01-18T02:13:34.614Z,96985.67
2019-01-18T02:16:04.500Z,96979.70
2019-01-18T02:18:34.335Z,96990.30
2019-01-18T02:21:04.264Z,96980.92
2019-01-18T02:23:34.043Z,96988.28
2019-01-18T02:26:03.849Z,96985.25
2019-01-18T02:28:33.596Z,96986.45
2019-01-18T02:31:03.372Z,96993.39
2019-01-18T02:33:33.130Z,96996.03
2019-01-18T02:36:02.975Z,97001.25
2019-01-18T02:38:32.745Z,97003.81
2019-01-18T02:41:02.979Z,97001.25
2019-01-18T02:43:32.909Z,97009.06
2019-01-18T02:46:04.318Z,97003.91
2019-01-18T02:48:34.274Z,97007.33
2019-01-18T02:51:04.117Z,97006.03
2019-01-18T02:53:33.872Z,97000.00
2019-01-18T02:56:03.691Z,97001.29
2019-01-18T02:58:33.410Z,97003.86
2019-01-18T03:01:03.192Z,97012.53
2019-01-18T03:03:32.956Z,97009.60
2019-01-18T03:06:02.783Z,97008.77
2019-01-18T03:08:32.554Z,97011.38
2019-01-18T03:11:03.352Z,97006.69
2019-01-18T03:13:33.178Z,97008.42
2019-01-18T03:16:02.982Z,97003.68
2019-01-18T03:18:32.787Z,97005.83
2019-01-18T03:21:02.930Z,97001.09
2019-01-18T03:23:33.127Z,97000.20
2019-01-18T03:26:03.287Z,96998.91
2019-01-18T03:28:33.418Z,97006.71
2019-01-18T03:31:03.408Z,97004.97
2019-01-18T03:33:35.826Z,97011.05
2019-01-18T03:36:05.849Z,97008.48
2019-01-18T03:38:35.656Z,97010.22
2019-01-18T03:41:08.041Z,97016.28
2019-01-18T03:43:38.052Z,97019.72
2019-01-18T03:46:07.850Z,97018.89
2019-01-18T03:48:37.576Z,97023.68
2019-01-18T03:51:07.337Z,97021.50
2019-01-18T03:53:37.133Z,97030.11
2019-01-18T03:56:06.957Z,97033.14
2019-01-18T03:58:36.761Z,97036.14
2019-01-18T04:01:07.330Z,97036.56
2019-01-18T04:03:37.080Z,97040.02
2019-01-18T04:06:06.835Z,97052.31
2019-01-18T04:08:36.684Z,97053.28
2019-01-18T04:11:06.681Z,97046.91
2019-01-18T04:13:36.475Z,97044.80
2019-01-18T04:16:06.388Z,97048.70
2019-01-18T04:18:36.156Z,97053.01
2019-01-18T04:21:05.925Z,97053.40
2019-01-18T04:23:35.676Z,97059.45
2019-01-18T04:26:05.428Z,97066.29
2019-01-18T04:28:35.238Z,97067.97
2019-01-18T04:31:05.087Z,97072.31
2019-01-18T04:33:34.874Z,97075.30
2019-01-18T04:36:04.649Z,97077.53
2019-01-18T04:38:34.356Z,97081.05
2019-01-18T04:41:04.126Z,97091.83
2019-01-18T04:43:33.958Z,97087.88
2019-01-18T04:46:03.845Z,97084.97
2019-01-18T04:48:33.560Z,97084.98
2019-01-18T04:51:03.371Z,97084.19
2019-01-18T04:53:33.172Z,97083.34
2019-01-18T04:56:02.963Z,97088.98
2019-01-18T04:58:32.918Z,97089.85
2019-01-18T05:01:02.700Z,97092.00
2019-01-18T05:03:32.540Z,97091.16
2019-01-18T05:06:02.355Z,97092.48
2019-01-18T05:08:32.149Z,97098.10
2019-01-18T05:11:01.964Z,97095.55
2019-01-18T05:13:32.024Z,97095.56
2019-01-18T05:16:03.144Z,97101.16
2019-01-18T05:18:32.983Z,97103.76
2019-01-18T05:21:02.810Z,97104.61
2019-01-18T05:23:32.831Z,97111.11
2019-01-18T05:26:02.591Z,97107.70
2019-01-18T05:28:32.376Z,97115.91
2019-01-18T05:31:02.183Z,97119.35
2019-01-18T05:33:31.941Z,97117.64
2019-01-18T05:36:01.804Z,97127.12
2019-01-18T05:38:31.580Z,97133.16
2019-01-18T05:41:01.355Z,97135.80
2019-01-18T05:43:31.156Z,97136.21
2019-01-18T05:46:00.976Z,97135.81
2019-01-18T05:48:30.731Z,97137.11
2019-01-18T05:51:00.504Z,97138.38
2019-01-18T05:53:30.524Z,97136.70
2019-01-18T05:56:00.335Z,97144.02
2019-01-18T05:58:31.208Z,97141.41
2019-01-18T06:01:02.660Z,97141.39
2019-01-18T06:03:32.562Z,97144.41
2019-01-18T06:06:02.343Z,97150.48
2019-01-18T06:08:32.276Z,97149.19
2019-01-18T06:11:02.075Z,97155.23
2019-01-18T06:13:31.872Z,97155.20
2019-01-18T06:16:01.724Z,97156.12
2019-01-18T06:18:31.467Z,97155.73
2019-01-18T06:21:01.276Z,97160.91
2019-01-18T06:23:31.117Z,97160.06
2019-01-18T06:26:00.851Z,97165.25
2019-01-18T06:28:31.002Z,97173.47
2019-01-18T06:31:01.833Z,97178.21
2019-01-18T06:33:31.924Z,97184.29
2019-01-18T06:36:01.758Z,97194.22
2019-01-18T06:38:31.503Z,97198.54
2019-01-18T06:41:02.812Z,97204.98
2019-01-18T06:43:32.553Z,97206.72
2019-01-18T06:46:02.359Z,97211.84
2019-01-18T06:48:32.504Z,97224.31
2019-01-18T06:51:02.140Z,97227.28
2019-01-18T06:53:31.931Z,97230.70
2019-01-18T06:56:01.721Z,97233.18
2019-01-18T06:58:31.618Z,97236.59
2019-01-18T07:01:01.396Z,97236.73
2019-01-18T07:03:31.149Z,97244.83
2019-01-18T07:06:00.987Z,97253.62
2019-01-18T07:08:30.768Z,97258.05
2019-01-18T07:11:00.576Z,97263.40
2019-01-18T07:13:30.414Z,97269.16
2019-01-18T07:16:00.241Z,97273.14
2019-01-18T07:18:30.037Z,97275.29
2019-01-18T07:20:59.998Z,97289.22
2019-01-18T07:23:29.794Z,97286.34
2019-01-18T07:25:59.632Z,97302.40
2019-01-18T07:28:29.413Z,97302.41
2019-01-18T07:30:59.173Z,97306.28
2019-01-18T07:33:29.148Z,97311.48
2019-01-18T07:35:58.942Z,97316.67
2019-01-18T07:38:28.749Z,97322.72
2019-01-18T07:40:58.534Z,97327.45
2019-01-18T07:43:28.320Z,97334.77
2019-01-18T07:45:58.197Z,97342.13
2019-01-18T07:48:28.129Z,97346.02
2019-01-18T07:50:58.016Z,97351.20
2019-01-18T07:53:27.798Z,97357.67
2019-01-18T07:55:57.767Z,97364.58
2019-01-18T07:58:27.575Z,97364.14
2019-01-18T08:00:57.635Z,97363.74
2019-01-18T08:03:27.469Z,97368.50
2019-01-18T08:05:57.271Z,97372.37
2019-01-18T08:08:27.146Z,97380.98
2019-01-18T08:10:56.929Z,97385.74
2019-01-18T08:13:26.735Z,97382.70
2019-01-18T08:15:56.768Z,97386.17
2019-01-18T08:18:26.580Z,97394.78
2019-01-18T08:20:58.108Z,97394.36
2019-01-18T08:23:27.907Z,97410.73
2019-01-18T08:25:57.825Z,97420.62
2019-01-18T08:28:27.655Z,97429.25
2019-01-18T08:30:57.473Z,97438.30
2019-01-18T08:33:27.200Z,97442.52
2019-01-18T08:35:57.028Z,97448.59
2019-01-18T08:38:26.825Z,97452.06
2019-01-18T08:40:56.665Z,97463.31
2019-01-18T08:43:26.389Z,97455.55
2019-01-18T08:45:56.178Z,97462.90
2019-01-18T08:48:25.971Z,97467.20
2019-01-18T08:50:56.201Z,97480.57
2019-01-18T08:53:25.986Z,97477.56
2019-01-18T08:55:55.756Z,97484.86
2019-01-18T08:58:25.526Z,97493.06
2019-01-18T09:00:56.437Z,97502.53
2019-01-18T09:03:26.184Z,97505.56
2019-01-18T09:05:56.009Z,97502.54
2019-01-18T09:08:25.990Z,97512.48
2019-01-18T09:10:55.814Z,97505.12
2019-01-18T09:13:25.799Z,97515.47
2019-01-18T09:15:55.902Z,97514.63
2019-01-18T09:18:25.609Z,97517.66
2019-01-18T09:20:55.419Z,97512.91
2019-01-18T09:23:25.190Z,97523.69
2019-01-18T09:25:55.029Z,97526.28
2019-01-18T09:28:24.854Z,97528.86
2019-01-18T09:30:54.659Z,97524.57
2019-01-18T09:33:24.360Z,97528.43
2019-01-18T09:35:54.360Z,97531.89
2019-01-18T09:38:24.165Z,97535.34
2019-01-18T09:40:53.984Z,97536.64
2019-01-18T09:43:23.764Z,97533.17
2019-01-18T09:45:53.587Z,97540.05
2019-01-18T09:48:23.364Z,97539.63
2019-01-18T09:50:53.133Z,97539.16
2019-01-18T09:53:22.983Z,97546.08
2019-01-18T09:55:52.782Z,97537.84
2019-01-18T09:58:22.533Z,97536.95
2019-01-18T10:00:52.363Z,97540.84
2019-01-18T10:03:22.105Z,97541.69
2019-01-18T10:05:51.903Z,97542.48
2019-01-18T10:08:21.784Z,97545.88
2019-01-18T10:10:51.545Z,97550.17
2019-01-18T10:13:21.396Z,97542.80
2019-01-18T10:15:51.192Z,97551.87
2019-01-18T10:18:21.902Z,97551.84
2019-01-18T10:20:51.817Z,97547.03
2019-01-18T10:23:21.878Z,97548.77
2019-01-18T10:25:51.838Z,97546.95
2019-01-18T10:28:21.644Z,97546.77
2019-01-18T10:30:52.184Z,97546.81
2019-01-18T10:33:21.987Z,97548.83
2019-01-18T10:35:51.795Z,97551.42
2019-01-18T10:38:21.662Z,97548.45
2019-01-18T10:40:51.476Z,97549.70
2019-01-18T10:43:21.247Z,97541.75
2019-01-18T10:45:51.057Z,97545.56
2019-01-18T10:48:20.800Z,97546.03
2019-01-18T10:50:50.529Z,97549.60
2019-01-18T10:53:20.366Z,97542.70
2019-01-18T10:55:50.166Z,97555.28
2019-01-18T10:58:19.987Z,97550.80
2019-01-18T11:00:51.013Z,97555.44
2019-01-18T11:03:20.841Z,97548.47
2019-01-18T11:05:51.387Z,97551.03
2019-01-18T11:08:21.215Z,97551.39
2019-01-18T11:10:51.008Z,97551.73
2019-01-18T11:13:20.803Z,97548.70
2019-01-18T11:15:50.543Z,97559.06
2019-01-18T11:18:21.581Z,97558.15
2019-01-18T11:20:54.496Z,97564.59
2019-01-18T11:23:25.800Z,97567.62
2019-01-18T11:25:55.790Z,97564.16
2019-01-18T11:28:25.570Z,97566.69
2019-01-18T11:30:55.599Z,97562.79
2019-01-18T11:33:25.679Z,97566.73
2019-01-18T11:35:55.492Z,97563.25
2019-01-18T11:38:25.515Z,97565.67
2019-01-18T11:40:55.848Z,97566.46
2019-01-18T11:43:25.671Z,97568.63
2019-01-18T11:45:55.480Z,97567.59
2019-01-18T11:48:25.431Z,97566.09
2019-01-18T11:50:56.218Z,97565.65
2019-01-18T11:53:25.989Z,97564.06
2019-01-18T11:55:55.783Z,97569.61
2019-01-18T11:58:25.584Z,97567.78
2019-01-18T12:00:55.392Z,97568.06
2019-01-18T12:03:25.185Z,97562.93
2019-01-18T12:05:55.129Z,97564.23
2019-01-18T12:08:25.095Z,97567.69
2019-01-18T12:10:55.075Z,97574.64
2019-01-18T12:13:24.934Z,97574.64
2019-01-18T12:15:54.889Z,97569.91
2019-01-18T12:18:24.735Z,97572.52
2019-01-18T12:20:56.524Z,97582.95
2019-01-18T12:23:27.336Z,97585.25
2019-01-18T12:25:57.158Z,97587.41
2019-01-18T12:28:27.116Z,97589.55
2019-01-18T12:30:58.554Z,97592.16
2019-01-18T12:33:28.469Z,97598.31
2019-01-18T12:35:58.336Z,97596.64
2019-01-18T12:38:28.835Z,97602.30
2019-01-18T12:41:00.273Z,97597.95
2019-01-18T12:43:30.213Z,97599.66
2019-01-18T12:46:00.188Z,97600.11
2019-01-18T12:48:30.139Z,97601.00
2019-01-18T12:51:00.140Z,97607.95
2019-01-18T12:53:30.445Z,97606.75
2019-01-18T12:56:00.311Z,97605.90
2019-01-18T12:58:30.070Z,97607.17
2019-01-18T13:01:00.065Z,97609.84
2019-01-18T13:03:29.803Z,97615.87
2019-01-18T13:06:00.344Z,97612.78
2019-01-18T13:08:30.120Z,97619.00
2019-01-18T13:11:00.029Z,97619.91
2019-01-18T13:13:29.746Z,97626.43
2019-01-18T13:16:05.129Z,97625.54
2019-01-18T13:18:35.109Z,97632.97
2019-01-18T13:21:04.889Z,97639.01
2019-01-18T13:23:34.673Z,97635.45
2019-01-18T13:26:04.533Z,97633.83
2019-01-18T13:28:34.323Z,97639.84
2019-01-18T13:31:04.192Z,97630.83
2019-01-18T13:33:33.944Z,97637.75
2019-01-18T13:36:05.292Z,97645.45
2019-01-18T13:38:35.107Z,97646.34
2019-01-18T13:41:04.915Z,97648.14
2019-01-18T13:43:34.699Z,97646.87
2019-01-18T13:46:04.575Z,97646.53
2019-01-18T13:48:34.369Z,97646.09
2019-01-18T13:51:04.136Z,97648.73
2019-01-18T13:53:34.127Z,97644.00
2019-01-18T13:56:03.804Z,97653.53
2019-01-18T13:58:33.615Z,97650.87
2019-01-18T14:01:04.216Z,97658.72
2019-01-18T14:03:35.638Z,97653.14
2019-01-18T14:06:05.616Z,97660.03
2019-01-18T14:08:35.410Z,97660.47
2019-01-18T14:11:05.300Z,97668.25
2019-01-18T14:13:37.463Z,97673.86
2019-01-18T14:16:06.656Z,97672.58
2019-01-18T14:18:36.596Z,97675.15
2019-01-18T14:21:06.428Z,97682.95
2019-01-18T14:23:36.335Z,97677.77
2019-01-18T14:26:06.143Z,97675.98
2019-01-18T14:28:36.129Z,97685.57
2019-01-18T14:31:05.920Z,97686.01
2019-01-18T14:33:35.745Z,97680.34
2019-01-18T14:36:05.707Z,97684.25
2019-01-18T14:38:35.494Z,97681.72
2019-01-18T14:41:05.300Z,97691.69
2019-01-18T14:43:35.092Z,97698.23
2019-01-18T14:46:04.865Z,97696.12
2019-01-18T14:48:34.713Z,97700.47
2019-01-18T14:51:05.174Z,97709.98
2019-01-18T14:53:35.105Z,97704.81
2019-01-18T14:56:05.486Z,97712.21
2019-01-18T14:58:35.283Z,97720.47
2019-01-18T15:01:05.180Z,97729.14
2019-01-18T15:03:34.989Z,97727.84
2019-01-18T15:06:04.950Z,97724.84
2019-01-18T15:08:34.836Z,97725.70
2019-01-18T15:11:04.642Z,97723.98
2019-01-18T15:13:34.465Z,97729.60
2019-01-18T15:16:04.411Z,97727.88
2019-01-18T15:18:34.288Z,97733.08
2019-01-18T15:21:04.060Z,97737.83
2019-01-18T15:23:33.888Z,97738.25
2019-01-18T15:26:03.661Z,97735.22
2019-01-18T15:28:33.505Z,97735.23
2019-01-18T15:31:03.340Z,97734.34
2019-01-18T15:33:33.177Z,97745.56
2019-01-18T15:36:02.969Z,97742.12
2019-01-18T15:38:32.981Z,97748.56
2019-01-18T15:41:02.888Z,97749.86
2019-01-18T15:43:32.655Z,97754.13
2019-01-18T15:46:02.850Z,97761.02
2019-01-18T15:48:33.088Z,97762.70
2019-01-18T15:51:03.298Z,97770.41
2019-01-18T15:53:33.538Z,97779.84
2019-01-18T15:56:03.309Z,97778.09
2019-01-18T15:58:33.157Z,97783.22
2019-01-18T16:01:03.340Z,97793.58
2019-01-18T16:03:33.300Z,97792.24
2019-01-18T16:06:03.135Z,97801.30
2019-01-18T16:08:32.987Z,97800.40
2019-01-18T16:11:02.795Z,97802.51
2019-01-18T16:13:32.631Z,97803.33
2019-01-18T16:16:05.221Z,97805.01
2019-01-18T16:18:35.013Z,97803.02
2019-01-18T16:21:04.794Z,97808.66
2019-01-18T16:23:34.576Z,97806.00
2019-01-18T16:26:04.450Z,97803.45
2019-01-18T16:28:34.258Z,97821.16
2019-01-18T16:31:04.044Z,97814.23
2019-01-18T16:33:33.904Z,97815.09
2019-01-18T16:36:03.989Z,97814.27
2019-01-18T16:38:33.783Z,97816.50
2019-01-18T16:41:03.608Z,97813.87
2019-01-18T16:43:34.520Z,97823.87
2019-01-18T16:46:04.683Z,97826.84
2019-01-18T16:48:34.683Z,97830.30
2019-01-18T16:51:04.478Z,97825.52
2019-01-18T16:53:34.363Z,97830.14
2019-01-18T16:56:04.241Z,97829.75
2019-01-18T16:58:33.993Z,97834.36
2019-01-18T17:01:03.784Z,97839.53
2019-01-18T17:03:33.606Z,97838.95
2019-01-18T17:06:03.455Z,97838.95
2019-01-18T17:08:33.435Z,97854.35
2019-01-18T17:11:03.391Z,97851.66
2019-01-18T17:13:34.067Z,97861.13
2019-01-18T17:16:03.957Z,97851.60
2019-01-18T17:18:33.835Z,97856.78
2019-01-18T17:21:03.798Z,97859.77
2019-01-18T17:23:34.132Z,97859.36
2019-01-18T17:26:04.038Z,97856.33
2019-01-18T17:28:33.793Z,97858.86
2019-01-18T17:31:03.570Z,97860.15
2019-01-18T17:33:37.141Z,97860.58
2019-01-18T17:36:16.605Z,97863.97
2019-01-18T17:38:48.482Z,97859.66
2019-01-18T17:41:41.143Z,97857.69
2019-01-18T17:44:23.107Z,97865.94
2019-01-18T17:47:14.072Z,97863.88
2019-01-18T17:50:14.001Z,97861.73
2019-01-18T17:52:53.342Z,97866.58
2019-01-18T17:55:33.018Z,97866.97
2019-01-18T17:58:21.564Z,97871.69
2019-01-18T18:01:15.651Z,97873.05
2019-01-18T18:04:04.848Z,97868.67
2019-01-18T18:06:38.134Z,97880.74
2019-01-18T18:09:15.126Z,97869.43
2019-01-18T18:11:50.794Z,97871.52
2019-01-18T18:14:26.772Z,97872.76
2019-01-18T18:17:17.672Z,97877.74
2019-01-18T18:20:05.433Z,97877.55
2019-01-18T18:22:54.058Z,97886.05
2019-01-18T18:25:43.515Z,97879.90
2019-01-18T18:28:31.291Z,97882.05
2019-01-18T18:31:09.932Z,97885.27
2019-01-18T18:34:01.610Z,97884.39
2019-01-18T18:36:38.653Z,97884.39
2019-01-18T18:39:11.432Z,97885.05
2019-01-18T18:42:06.019Z,97898.33
2019-01-18T18:45:03.596Z,97890.26
2019-01-18T18:48:07.522Z,97890.26
2019-01-18T18:50:56.755Z,97899.72
2019-01-18T18:53:56.185Z,97907.05
2019-01-18T18:56:29.198Z,97911.39
2019-01-18T18:59:14.634Z,97902.36
2019-01-18T19:02:12.458Z,97901.38
2019-01-18T19:04:50.953Z,97904.35
2019-01-18T19:07:32.913Z,97909.11
2019-01-18T19:10:20.752Z,97899.97
2019-01-18T19:13:04.632Z,97914.08
2019-01-18T19:15:46.101Z,97912.27
2019-01-18T19:18:27.892Z,97919.97
2019-01-18T19:21:22.232Z,97923.33
2019-01-18T19:24:03.945Z,97919.80
2019-01-18T19:26:39.833Z,97924.08
2019-01-18T19:29:30.630Z,97928.75
2019-01-18T19:32:13.815Z,97929.06
2019-01-18T19:35:13.794Z,97931.11
2019-01-18T19:38:22.873Z,97929.20
2019-01-18T19:41:04.553Z,97936.89
2019-01-18T19:43:46.075Z,97939.70
2019-01-18T19:46:37.432Z,97939.70
2019-01-18T19:49:29.464Z,97943.48
2019-01-18T19:52:09.322Z,97942.05
2019-01-18T19:54:42.970Z,97942.05
2019-01-18T19:57:35.389Z,97947.05
2019-01-18T20:00:16.928Z,97934.44
2019-01-18T20:03:03.073Z,97958.48
2019-01-18T20:05:41.875Z,97958.48
2019-01-18T20:08:14.772Z,97958.84
2019-01-18T20:11:06.230Z,97958.84
2019-01-18T20:14:10.925Z,97956.22
2019-01-18T20:17:03.090Z,97957.47
2019-01-18T20:19:39.807Z,97971.23
2019-01-18T20:22:24.545Z,97971.45
2019-01-18T20:25:15.152Z,97971.45
2019-01-18T20:28:01.698Z,97975.31
2019-01-18T20:30:41.578Z,97977.84
2019-01-18T20:33:51.357Z,97983.36
2019-01-18T20:36:45.574Z,97977.95
2019-01-18T20:39:35.893Z,97991.19
2019-01-18T20:42:20.512Z,97988.95
2019-01-18T20:45:17.272Z,97988.84
2019-01-18T20:48:03.452Z,97983.17
2019-01-18T20:50:58.202Z,97983.17
2019-01-18T20:53:32.214Z,97989.08
2019-01-18T20:56:34.454Z,97988.66
2019-01-18T20:59:31.333Z,97988.66
2019-01-18T21:02:34.733Z,97985.75
2019-01-18T21:05:30.154Z,97986.70
2019-01-18T21:08:37.614Z,97987.06
2019-01-18T21:14:40.463Z,97997.18
2019-01-18T21:17:23.074Z,97995.92
2019-01-18T21:20:07.415Z,97992.95
2019-01-18T21:22:44.994Z,98000.05
2019-01-18T21:25:31.743Z,98004.05
2019-01-18T21:28:30.516Z,98001.94
2019-01-18T21:31:13.640Z,98000.54
2019-01-18T21:33:52.307Z,98006.49
2019-01-18T21:36:36.453Z,98010.81
2019-01-18T21:39:33.145Z,98017.65
2019-01-18T21:42:42.100Z,98011.24
2019-01-18T21:45:34.913Z,98017.95
2019-01-18T21:48:32.517Z,98024.91
2019-01-18T21:51:39.301Z,98025.44
2019-01-18T21:54:56.686Z,98022.62
2019-01-18T21:57:38.067Z,98030.12
2019-01-18T22:00:22.342Z,98028.98
2019-01-18T22:03:32.269Z,98031.00
2019-01-18T22:06:12.771Z,98032.86
2019-01-18T22:09:06.672Z,98029.55
2019-01-18T22:11:59.012Z,98025.19
2019-01-18T22:15:06.771Z,98038.12
2019-01-18T22:17:55.561Z,98032.89
2019-01-18T22:20:42.170Z,98040.70
2019-01-18T22:26:39.552Z,98041.47
2019-01-18T22:29:28.202Z,98039.22
2019-01-18T22:32:09.316Z,98036.66
2019-01-18T22:34:47.675Z,98039.99
2019-01-18T22:37:29.260Z,98034.44
2019-01-18T22:40:41.751Z,98029.69
2019-01-18T22:43:35.732Z,98024.84
2019-01-18T22:46:42.416Z,98025.55
2019-01-18T22:49:31.585Z,98030.97
2019-01-18T22:52:15.149Z,98035.01
2019-01-18T22:55:32.712Z,98034.59
2019-01-18T22:58:19.994Z,98028.55
2019-01-18T23:01:30.747Z,98034.22
2019-01-18T23:04:25.977Z,98032.84
2019-01-18T23:07:24.580Z,98030.79
2019-01-18T23:10:04.251Z,98031.39
2019-01-18T23:12:46.372Z,98034.20
2019-01-18T23:15:45.803Z,98031.59
2019-01-18T23:18:25.512Z,98041.06
2019-01-18T23:21:17.297Z,98036.45
2019-01-18T23:24:09.920Z,98029.30
2019-01-18T23:27:12.211Z,98024.17
2019-01-18T23:30:02.842Z,98030.10
2019-01-18T23:32:40.913Z,98033.84
2019-01-18T23:35:22.213Z,98035.80
2019-01-18T23:38:00.381Z,98034.27
2019-01-18T23:40:39.936Z,98030.69
2019-01-18T23:43:24.432Z,98035.89
2019-01-18T23:46:15.946Z,98030.38
2019-01-18T23:49:02.488Z,98025.35
2019-01-18T23:52:03.431Z,98027.09
2019-01-18T23:54:47.832Z,98028.86
2019-01-18T23:57:25.967Z,98033.44
